Time;durP1;ratioP1;P1;durP2;ratioP2;P2;SDS_P1;SDS_P2;PMS_P1;PMS_P2;Temp;Humidity;BMP_temperature;BMP_pressure;BME280_temperature;BME280_humidity;BME280_pressure;Samples;Min_cycle;Max_cycle;Signal;HPM_P1;HPM_P2
2023/09/25 00:02:08;;;;;;;27.53;26.23;;;;;;;12.64;100.00;102409.13;4975173;28;20474;-43
2023/09/25 00:04:35;;;;;;;26.80;25.80;;;;;;;12.62;100.00;102411.16;4975155;28;20964;-43
2023/09/25 00:07:04;;;;;;;27.07;25.97;;;;;;;12.63;100.00;102409.31;4974386;28;21069;-42
2023/09/25 00:09:31;;;;;;;27.13;26.03;;;;;;;12.63;100.00;102412.00;4975247;28;20434;-41
2023/09/25 00:11:59;;;;;;;27.60;26.27;;;;;;;12.62;100.00;102412.97;4974839;28;20463;-43
2023/09/25 00:14:29;;;;;;;28.00;26.90;;;;;;;12.62;100.00;102405.78;4975241;28;20435;-42
2023/09/25 00:16:56;;;;;;;28.03;26.73;;;;;;;12.62;100.00;102404.97;4974529;28;20463;-40
2023/09/25 00:19:24;;;;;;;27.50;26.43;;;;;;;12.61;100.00;102405.94;4975107;28;20442;-43
2023/09/25 00:21:52;;;;;;;28.57;27.03;;;;;;;12.60;100.00;102405.09;4974658;28;20486;-39
2023/09/25 00:24:20;;;;;;;27.67;26.53;;;;;;;12.59;100.00;102399.94;4974760;28;20466;-39
2023/09/25 00:26:48;;;;;;;27.80;26.60;;;;;;;12.58;100.00;102403.63;4975116;28;20533;-46
2023/09/25 00:29:16;;;;;;;28.57;27.30;;;;;;;12.55;100.00;102418.16;4974680;28;20479;-43
2023/09/25 00:31:45;;;;;;;28.43;27.23;;;;;;;12.54;100.00;102405.81;4974344;28;20538;-41
2023/09/25 00:34:14;;;;;;;28.60;27.10;;;;;;;12.53;100.00;102414.84;4974687;28;20423;-42
2023/09/25 00:36:42;;;;;;;27.97;26.67;;;;;;;12.50;100.00;102412.50;4974513;28;20510;-39
2023/09/25 00:39:10;;;;;;;29.87;28.57;;;;;;;12.47;100.00;102412.84;4974582;28;20437;-42
2023/09/25 00:41:38;;;;;;;28.73;27.23;;;;;;;12.44;100.00;102421.19;4974331;28;20501;-40
2023/09/25 00:44:06;;;;;;;31.47;30.07;;;;;;;12.43;100.00;102418.69;4974546;28;20509;-39
2023/09/25 00:46:33;;;;;;;28.67;27.27;;;;;;;12.39;100.00;102412.84;4974220;28;20513;-39
2023/09/25 00:49:03;;;;;;;29.67;28.37;;;;;;;12.40;100.00;102416.34;4974285;28;20506;-41
2023/09/25 00:51:31;;;;;;;30.40;29.10;;;;;;;12.37;100.00;102424.69;4974043;28;20439;-40
2023/09/25 00:53:59;;;;;;;30.67;29.47;;;;;;;12.31;100.00;102414.66;4973098;28;20431;-42
2023/09/25 00:56:26;;;;;;;31.47;29.90;;;;;;;12.26;100.00;102417.84;4972577;28;20463;-42
2023/09/25 00:58:54;;;;;;;31.30;30.10;;;;;;;12.23;100.00;102415.50;4973227;28;20517;-40
2023/09/25 01:01:23;;;;;;;31.70;30.40;;;;;;;12.19;100.00;102409.66;4973300;28;20427;-42
2023/09/25 01:03:51;;;;;;;32.77;31.33;;;;;;;12.13;100.00;102399.63;4972855;28;20462;-44
2023/09/25 01:06:20;;;;;;;32.30;31.00;;;;;;;12.13;100.00;102406.81;4972162;28;20501;-42
2023/09/25 01:08:48;;;;;;;32.03;30.83;;;;;;;12.09;100.00;102402.81;4972752;28;20481;-42
2023/09/25 01:11:16;;;;;;;34.37;32.87;;;;;;;12.16;100.00;102404.63;4972486;28;20446;-47
2023/09/25 01:13:44;;;;;;;32.73;31.43;;;;;;;12.15;100.00;102402.16;4972690;28;20462;-41
2023/09/25 01:16:12;;;;;;;33.30;32.00;;;;;;;12.11;100.00;102400.78;4972339;28;20930;-42
2023/09/25 01:18:40;;;;;;;33.83;32.20;;;;;;;12.08;100.00;102403.81;4972557;28;20494;-47
2023/09/25 01:21:07;;;;;;;35.03;33.63;;;;;;;12.04;100.00;102403.28;4972281;28;20465;-44
2023/09/25 01:23:37;;;;;;;35.47;33.97;;;;;;;12.01;100.00;102406.28;4972818;28;20461;-44
2023/09/25 01:26:05;;;;;;;35.27;33.87;;;;;;;11.99;100.00;102394.09;4972966;28;21006;-41
2023/09/25 01:28:33;;;;;;;34.53;33.13;;;;;;;11.95;100.00;102400.75;4972533;28;20502;-40
2023/09/25 01:31:00;;;;;;;35.87;34.17;;;;;;;11.92;100.00;102393.06;4972281;28;20445;-41
2023/09/25 01:33:28;;;;;;;35.30;33.80;;;;;;;11.89;100.00;102390.72;4971827;28;20483;-43
2023/09/25 01:35:56;;;;;;;37.00;35.40;;;;;;;11.86;100.00;102385.72;4972143;28;20514;-41
2023/09/25 01:38:23;;;;;;;35.20;33.60;;;;;;;11.85;100.00;102386.75;4972231;28;20868;-44
2023/09/25 01:40:52;;;;;;;35.20;33.70;;;;;;;11.84;100.00;102390.41;4972453;28;20442;-40
2023/09/25 01:43:20;;;;;;;35.67;34.27;;;;;;;11.82;100.00;102389.75;4972284;28;20490;-43
2023/09/25 01:45:48;;;;;;;33.60;32.30;;;;;;;11.80;100.00;102384.53;4971844;28;20542;-44
2023/09/25 01:48:16;;;;;;;34.63;33.10;;;;;;;11.80;100.00;102376.53;4972470;28;20529;-42
2023/09/25 01:50:44;;;;;;;36.30;34.80;;;;;;;11.80;100.00;102376.53;4972022;28;20456;-42
2023/09/25 01:53:11;;;;;;;36.17;34.57;;;;;;;11.81;100.00;102380.88;4971917;28;20487;-42
2023/09/25 01:55:40;;;;;;;35.60;34.20;;;;;;;11.79;100.00;102376.72;4971976;28;20459;-42
2023/09/25 01:58:09;;;;;;;37.60;35.90;;;;;;;11.77;100.00;102376.03;4972079;28;20434;-43
2023/09/25 02:00:37;;;;;;;37.83;36.03;;;;;;;11.76;100.00;102367.19;4971775;28;20446;-44
2023/09/25 02:03:06;;;;;;;36.63;35.23;;;;;;;11.74;100.00;102363.81;4971988;28;20469;-43
2023/09/25 02:05:34;;;;;;;36.33;34.60;;;;;;;11.75;100.00;102360.16;4971591;28;20469;-41
2023/09/25 02:08:01;;;;;;;36.40;35.10;;;;;;;11.75;100.00;102367.34;4971968;28;20502;-42
2023/09/25 02:10:29;;;;;;;35.83;34.43;;;;;;;11.75;100.00;102367.34;4971497;28;20449;-40
2023/09/25 02:12:57;;;;;;;35.90;34.20;;;;;;;11.74;100.00;102368.34;4971612;28;20458;-43
2023/09/25 02:15:26;;;;;;;37.00;35.10;;;;;;;11.75;100.00;102373.53;4971938;28;20537;-40
2023/09/25 02:17:54;;;;;;;36.37;34.87;;;;;;;11.75;100.00;102376.19;4971905;28;20449;-42
2023/09/25 02:20:22;;;;;;;35.20;33.87;;;;;;;11.74;100.00;102379.84;4971702;28;20432;-41
2023/09/25 02:22:51;;;;;;;36.63;34.93;;;;;;;11.73;100.00;102372.84;4971964;28;20458;-42
2023/09/25 02:25:19;;;;;;;35.20;33.70;;;;;;;11.73;100.00;102380.88;4971734;28;20895;-42
2023/09/25 02:27:47;;;;;;;38.00;36.50;;;;;;;11.72;100.00;102378.34;4973161;28;20893;-42
2023/09/25 02:30:15;;;;;;;37.60;36.00;;;;;;;11.71;100.00;102374.84;4971619;28;20842;-42
2023/09/25 02:32:45;;;;;;;36.40;34.90;;;;;;;11.70;100.00;102380.38;4971957;28;20454;-41
2023/09/25 02:35:13;;;;;;;37.67;36.17;;;;;;;11.68;100.00;102385.00;4971462;28;20458;-41
2023/09/25 02:37:42;;;;;;;37.20;35.73;;;;;;;11.65;100.00;102378.13;4971884;28;20600;-42
2023/09/25 02:40:13;;;;;;;39.73;37.70;;;;;;;11.65;100.00;102376.31;4971474;28;20443;-42
2023/09/25 02:42:41;;;;;;;39.20;37.60;;;;;;;11.64;100.00;102384.50;4971898;28;20459;-40
2023/09/25 02:45:10;;;;;;;37.13;35.57;;;;;;;11.62;100.00;102379.31;4971570;28;20439;-41
2023/09/25 02:47:38;;;;;;;38.40;36.87;;;;;;;11.59;100.00;102384.13;4972245;28;20434;-40
2023/09/25 02:50:08;;;;;;;39.07;37.47;;;;;;;11.59;100.00;102381.47;4975226;28;20475;-42
2023/09/25 02:52:37;;;;;;;36.77;35.37;;;;;;;11.57;100.00;102386.13;4975183;28;20462;-40
2023/09/25 02:55:05;;;;;;;37.60;36.10;;;;;;;11.56;100.00;102379.97;4975063;28;20799;-42
2023/09/25 02:57:33;;;;;;;39.47;37.87;;;;;;;11.55;100.00;102375.63;4975531;28;20434;-41
2023/09/25 03:00:01;;;;;;;38.40;36.70;;;;;;;11.53;100.00;102377.59;4975288;28;20504;-40
2023/09/25 03:02:29;;;;;;;37.47;35.97;;;;;;;11.52;100.00;102372.44;4974400;28;20878;-40
2023/09/25 03:04:57;;;;;;;39.17;37.53;;;;;;;11.48;100.00;102379.94;4973772;28;21025;-39
2023/09/25 03:07:26;;;;;;;40.17;38.40;;;;;;;11.47;100.00;102383.59;4975114;28;20938;-42
2023/09/25 03:09:54;;;;;;;39.17;37.57;;;;;;;11.46;100.00;102381.94;4974641;28;20514;-42
2023/09/25 03:12:22;;;;;;;40.60;38.83;;;;;;;11.43;100.00;102368.91;4974900;28;20458;-41
2023/09/25 03:14:49;;;;;;;40.20;38.57;;;;;;;11.41;100.00;102378.09;4974979;28;20434;-41
2023/09/25 03:17:17;;;;;;;40.50;38.73;;;;;;;11.38;100.00;102373.88;4974699;28;20509;-42
2023/09/25 03:19:45;;;;;;;40.17;38.47;;;;;;;11.38;100.00;102379.22;4974818;28;20434;-40
2023/09/25 03:22:13;;;;;;;42.33;40.63;;;;;;;11.36;100.00;102380.41;4974644;28;20804;-42
2023/09/25 03:24:42;;;;;;;42.23;40.53;;;;;;;11.32;100.00;102374.53;4988270;28;20434;-40
2023/09/25 03:27:09;;;;;;;43.60;41.90;;;;;;;11.29;100.00;102374.84;4979836;28;20482;-39
2023/09/25 03:29:37;;;;;;;44.53;42.37;;;;;;;11.27;100.00;102382.22;4981919;28;20481;-40
2023/09/25 03:32:06;;;;;;;45.23;43.43;;;;;;;11.24;100.00;102387.88;4990797;28;20553;-42
2023/09/25 03:34:34;;;;;;;45.23;43.40;;;;;;;11.23;100.00;102380.84;4987578;28;20441;-39
2023/09/25 03:37:02;;;;;;;46.17;44.17;;;;;;;11.22;100.00;102383.69;4994118;28;20462;-38
2023/09/25 03:39:30;;;;;;;46.10;44.20;;;;;;;11.21;100.00;102390.03;4991027;28;20435;-39
2023/09/25 03:41:59;;;;;;;47.37;45.43;;;;;;;11.19;100.00;102392.88;4974809;28;21118;-39
2023/09/25 03:44:27;;;;;;;47.40;45.30;;;;;;;11.19;100.00;102389.34;4974948;28;20484;-45
2023/09/25 03:46:54;;;;;;;46.80;44.97;;;;;;;11.16;100.00;102382.50;4981251;28;20492;-40
2023/09/25 03:49:22;;;;;;;47.20;45.40;;;;;;;11.15;100.00;102382.66;4975696;28;20569;-39
2023/09/25 03:51:50;;;;;;;46.33;44.43;;;;;;;11.14;100.00;102376.47;4974592;28;20462;-42
2023/09/25 03:54:17;;;;;;;45.37;43.67;;;;;;;11.15;100.00;102374.63;4990744;28;20466;-39
2023/09/25 03:56:45;;;;;;;46.37;44.57;;;;;;;11.15;100.00;102388.00;4982468;28;20518;-41
2023/09/25 03:59:14;;;;;;;45.47;43.50;;;;;;;11.15;100.00;102383.50;4974163;28;20446;-39
2023/09/25 04:01:42;;;;;;;44.90;43.20;;;;;;;11.15;100.00;102382.66;4982413;28;20526;-39
2023/09/25 04:04:09;;;;;;;47.63;45.60;;;;;;;11.14;100.00;102389.81;4983337;28;20528;-40
2023/09/25 04:06:37;;;;;;;48.20;46.40;;;;;;;11.13;100.00;102388.16;4993629;28;20469;-39
2023/09/25 04:09:07;;;;;;;47.70;45.70;;;;;;;11.11;100.00;102384.78;4977667;28;20819;-40
2023/09/25 04:11:35;;;;;;;49.50;47.27;;;;;;;11.11;100.00;102382.13;4978013;28;20469;-42
2023/09/25 04:14:03;;;;;;;49.37;47.47;;;;;;;11.09;100.00;102376.97;4978053;28;20481;-39
2023/09/25 04:16:33;;;;;;;50.07;48.17;;;;;;;11.08;100.00;102385.13;4974078;28;20455;-39
2023/09/25 04:19:04;;;;;;;51.17;49.07;;;;;;;11.09;100.00;102394.81;4982539;28;20439;-42
2023/09/25 04:21:32;;;;;;;49.00;47.00;;;;;;;11.08;100.00;102393.13;4985619;28;20438;-39
2023/09/25 04:24:01;;;;;;;49.67;47.73;;;;;;;11.06;100.00;102395.97;4978368;28;20486;-41
2023/09/25 04:26:29;;;;;;;49.23;47.23;;;;;;;11.08;100.00;102398.47;4975693;28;20986;-40
2023/09/25 04:28:57;;;;;;;45.60;43.70;;;;;;;11.08;100.00;102398.47;4981245;28;20941;-39
2023/09/25 04:31:25;;;;;;;46.47;44.57;;;;;;;11.09;100.00;102397.47;4990570;28;20482;-42
2023/09/25 04:33:54;;;;;;;48.13;46.23;;;;;;;11.07;100.00;102389.66;4988419;28;20545;-40
2023/09/25 04:36:23;;;;;;;44.80;43.10;;;;;;;11.09;100.00;102387.66;4982832;28;20558;-41
2023/09/25 04:38:51;;;;;;;45.80;43.70;;;;;;;11.10;100.00;102396.50;4973787;28;20996;-41
2023/09/25 04:41:19;;;;;;;44.83;42.70;;;;;;;11.10;100.00;102384.00;4989932;28;20802;-39
2023/09/25 04:43:47;;;;;;;43.50;41.60;;;;;;;11.10;100.00;102386.66;4987414;28;20454;-40
2023/09/25 04:46:15;;;;;;;44.10;42.20;;;;;;;11.10;100.00;102375.97;4975497;28;20458;-39
2023/09/25 04:48:43;;;;;;;43.77;41.97;;;;;;;11.11;100.00;102368.78;4973746;28;20565;-39
2023/09/25 04:51:14;;;;;;;43.90;42.20;;;;;;;11.12;100.00;102367.78;4973299;28;20562;-42
2023/09/25 04:53:42;;;;;;;42.90;41.10;;;;;;;11.15;100.00;102371.97;4978296;28;20549;-38
2023/09/25 04:56:10;;;;;;;42.00;39.90;;;;;;;11.17;100.00;102367.31;4976569;28;20776;-38
2023/09/25 04:58:38;;;;;;;40.57;38.87;;;;;;;11.20;100.00;102373.16;4980788;28;20498;-38
2023/09/25 05:01:06;;;;;;;41.57;39.87;;;;;;;11.23;100.00;102359.47;4973403;28;20435;-39
2023/09/25 05:03:33;;;;;;;40.27;38.60;;;;;;;11.26;100.00;102353.81;4981593;28;20474;-39
2023/09/25 05:06:01;;;;;;;39.00;37.50;;;;;;;11.32;100.00;102357.69;4980165;28;20457;-38
2023/09/25 05:08:30;;;;;;;37.73;36.13;;;;;;;11.36;100.00;102351.84;4981986;28;20860;-44
2023/09/25 05:10:58;;;;;;;35.77;34.47;;;;;;;11.41;100.00;102352.19;4972574;28;21010;-43
2023/09/25 05:13:26;;;;;;;38.23;36.63;;;;;;;11.45;100.00;102344.69;4972506;28;20537;-40
2023/09/25 05:15:54;;;;;;;34.80;33.10;;;;;;;11.46;100.00;102336.53;4972693;28;20490;-44
2023/09/25 05:18:22;;;;;;;33.07;31.43;;;;;;;11.52;100.00;102335.88;4974362;28;20446;-42
2023/09/25 05:20:50;;;;;;;32.97;31.60;;;;;;;11.54;100.00;102344.56;4978708;28;20443;-43
2023/09/25 05:23:18;;;;;;;32.30;30.80;;;;;;;11.58;100.00;102340.56;4972673;28;20463;-41
2023/09/25 05:25:47;;;;;;;32.93;31.53;;;;;;;11.62;100.00;102335.72;4977187;28;20468;-44
2023/09/25 05:28:15;;;;;;;32.40;30.67;;;;;;;11.61;100.00;102336.72;4978446;28;20445;-44
2023/09/25 05:30:43;;;;;;;32.17;30.87;;;;;;;11.67;100.00;102325.38;4972512;28;20471;-41
2023/09/25 05:33:11;;;;;;;33.90;32.00;;;;;;;11.73;100.00;102334.59;4980490;28;20925;-40
2023/09/25 05:35:39;;;;;;;30.73;29.27;;;;;;;11.77;100.00;102327.94;4976104;28;21172;-44
2023/09/25 05:38:07;;;;;;;31.13;29.63;;;;;;;11.84;100.00;102320.91;4984574;28;20498;-42
2023/09/25 05:40:35;;;;;;;30.33;29.13;;;;;;;11.96;100.00;102322.25;4967823;28;20430;-42
2023/09/25 05:43:04;;;;;;;30.83;29.27;;;;;;;12.06;100.00;102313.06;4984816;28;20482;-43
2023/09/25 05:45:32;;;;;;;29.07;27.67;;;;;;;12.27;100.00;102304.53;4971891;28;20512;-41
2023/09/25 05:48:00;;;;;;;28.33;27.23;;;;;;;12.53;100.00;102290.91;4972665;28;20547;-39
2023/09/25 05:50:28;;;;;;;29.20;27.80;;;;;;;12.69;100.00;102280.16;4972187;28;20478;-43
2023/09/25 05:52:56;;;;;;;27.90;26.80;;;;;;;12.85;100.00;102281.91;4972225;28;20486;-42
2023/09/25 05:55:23;;;;;;;27.87;26.67;;;;;;;12.93;100.00;102279.22;4971647;28;21015;-40
2023/09/25 05:57:51;;;;;;;28.33;27.23;;;;;;;12.98;100.00;102285.72;4972063;28;20556;-41
2023/09/25 06:00:22;;;;;;;28.47;27.37;;;;;;;12.99;100.00;102273.97;4971528;28;20435;-42
2023/09/25 06:02:50;;;;;;;29.50;28.30;;;;;;;13.05;100.00;102280.50;4972317;28;21017;-40
2023/09/25 06:05:18;;;;;;;28.30;27.20;;;;;;;13.10;100.00;102289.69;4979590;28;20449;-39
2023/09/25 06:07:46;;;;;;;27.07;26.07;;;;;;;13.13;100.00;102284.00;4972396;28;20439;-41
2023/09/25 06:10:15;;;;;;;26.93;25.67;;;;;;;13.19;100.00;102287.81;4971530;28;20445;-38
2023/09/25 06:12:44;;;;;;;29.03;27.63;;;;;;;13.27;100.00;102290.44;4976312;28;20817;-41
2023/09/25 06:15:12;;;;;;;28.10;26.57;;;;;;;13.30;100.00;102290.91;4990898;28;20985;-42
2023/09/25 06:17:42;;;;;;;27.47;26.27;;;;;;;13.40;100.00;102297.91;4976164;28;20463;-41
2023/09/25 06:20:15;;;;;;;26.77;25.77;;;;;;;13.45;100.00;102295.50;4983617;28;20818;-41
2023/09/25 06:22:46;;;;;;;26.20;25.10;;;;;;;13.54;100.00;102291.75;4977104;28;20516;-41
2023/09/25 06:25:17;;;;;;;27.47;26.17;;;;;;;13.61;100.00;102292.72;4978459;28;20670;-41
2023/09/25 06:27:46;;;;;;;27.37;26.37;;;;;;;13.77;100.00;102293.44;4979104;28;20441;-45
2023/09/25 06:30:16;;;;;;;26.10;25.00;;;;;;;13.97;100.00;102303.66;4975655;28;20439;-41
2023/09/25 06:32:45;;;;;;;27.20;25.90;;;;;;;14.19;100.00;102297.41;4980495;28;20837;-42
2023/09/25 06:35:13;;;;;;;25.63;24.53;;;;;;;14.32;100.00;102293.13;4986545;28;20889;-43
2023/09/25 06:37:41;;;;;;;25.50;24.50;;;;;;;14.56;100.00;102296.56;4983503;28;20434;-42
2023/09/25 06:40:10;;;;;;;26.10;25.10;;;;;;;14.78;100.00;102301.03;4983293;28;20960;-40
2023/09/25 06:42:39;;;;;;;24.90;23.93;;;;;;;15.08;100.00;102299.13;4995034;28;20541;-42
2023/09/25 06:45:08;;;;;;;24.87;23.57;;;;;;;15.26;100.00;102297.66;4987456;28;20431;-46
2023/09/25 06:47:36;;;;;;;25.30;24.30;;;;;;;15.31;100.00;102297.13;4994876;28;20458;-42
2023/09/25 06:50:07;;;;;;;24.90;24.00;;;;;;;15.24;100.00;102304.25;4987816;28;20438;-45
2023/09/25 06:52:36;;;;;;;24.70;23.70;;;;;;;15.30;100.00;102308.88;4975368;28;20486;-43
2023/09/25 06:55:04;;;;;;;24.83;23.60;;;;;;;15.21;100.00;102299.25;4974891;28;20441;-41
2023/09/25 06:57:32;;;;;;;24.60;23.70;;;;;;;15.29;100.00;102307.22;4975599;28;20446;-45
2023/09/25 07:00:01;;;;;;;25.67;24.33;;;;;;;15.16;100.00;102299.84;4975404;28;20438;-41
2023/09/25 07:02:31;;;;;;;23.50;22.70;;;;;;;15.18;100.00;102310.38;4975278;28;20494;-41
2023/09/25 07:04:59;;;;;;;25.00;24.00;;;;;;;15.23;100.00;102310.69;4975117;28;20438;-44
2023/09/25 07:07:29;;;;;;;23.70;22.40;;;;;;;15.30;100.00;102306.19;4975248;28;20497;-44
2023/09/25 07:09:56;;;;;;;23.77;22.67;;;;;;;15.28;100.00;102300.19;4975144;28;20438;-43
2023/09/25 07:12:25;;;;;;;23.27;22.40;;;;;;;15.27;100.00;102304.72;4974718;28;20541;-42
2023/09/25 07:14:56;;;;;;;24.57;23.23;;;;;;;15.25;100.00;102306.78;4974816;28;20426;-42
2023/09/25 07:17:24;;;;;;;23.70;22.70;;;;;;;15.26;100.00;102316.47;4983063;28;20449;-43
2023/09/25 07:19:52;;;;;;;24.17;22.67;;;;;;;15.31;100.00;102322.16;4983318;28;20434;-46
2023/09/25 07:22:21;;;;;;;23.77;22.87;;;;;;;15.30;100.00;102322.31;4975831;28;20455;-46
2023/09/25 07:24:50;;;;;;;24.00;22.80;;;;;;;15.32;100.00;102318.41;4981936;28;20926;-43
2023/09/25 07:27:18;;;;;;;22.50;21.60;;;;;;;15.43;100.00;102319.78;4977559;28;20517;-46
2023/09/25 07:29:47;;;;;;;22.97;22.07;;;;;;;15.43;100.00;102325.16;4974526;28;20515;-43
2023/09/25 07:32:16;;;;;;;22.40;21.50;;;;;;;15.58;100.00;102317.91;4983139;28;20572;-44
2023/09/25 07:34:45;;;;;;;22.50;21.60;;;;;;;15.63;100.00;102315.47;4989624;28;20436;-42
2023/09/25 07:37:14;;;;;;;22.47;21.33;;;;;;;15.66;100.00;102316.94;4974678;28;20470;-44
2023/09/25 07:39:42;;;;;;;23.13;22.13;;;;;;;15.73;100.00;102309.78;4977408;28;20545;-41
2023/09/25 07:42:12;;;;;;;22.87;21.97;;;;;;;15.75;100.00;102319.31;4986151;28;20791;-46
2023/09/25 07:44:40;;;;;;;22.33;21.53;;;;;;;15.89;100.00;102320.25;4986260;28;20505;-43
2023/09/25 07:47:10;;;;;;;21.90;21.10;;;;;;;15.93;100.00;102325.09;4985634;28;20815;-42
2023/09/25 07:49:40;;;;;;;22.70;21.53;;;;;;;15.99;100.00;102315.41;4982987;28;20435;-46
2023/09/25 07:52:15;;;;;;;23.30;22.20;;;;;;;16.05;100.00;102323.53;4988979;28;21027;-41
2023/09/25 07:54:45;;;;;;;22.93;22.03;;;;;;;16.10;100.00;102331.00;4993789;28;20441;-44
2023/09/25 07:57:15;;;;;;;22.43;21.53;;;;;;;16.12;100.00;102317.38;4993240;28;20468;-44
2023/09/25 07:59:43;;;;;;;22.33;21.43;;;;;;;16.24;100.00;102319.34;4966817;28;20451;-44
2023/09/25 08:02:16;;;;;;;23.07;21.87;;;;;;;16.39;100.00;102311.16;4985431;28;20468;-42
2023/09/25 08:04:44;;;;;;;22.17;21.27;;;;;;;16.43;100.00;102323.19;4988669;28;20435;-42
2023/09/25 08:07:12;;;;;;;21.20;20.40;;;;;;;16.59;100.00;102318.38;4980468;28;20546;-39
2023/09/25 08:09:41;;;;;;;20.50;19.70;;;;;;;16.70;100.00;102321.53;4993400;28;20466;-42
2023/09/25 08:12:09;;;;;;;20.90;20.10;;;;;;;16.77;100.00;102320.53;4991546;28;20485;-39
2023/09/25 08:14:38;;;;;;;19.50;18.90;;;;;;;16.97;100.00;102331.41;4978326;28;20526;-42
2023/09/25 08:17:05;;;;;;;20.80;19.80;;;;;;;17.07;100.00;102324.63;4974993;28;20463;-43
2023/09/25 08:19:33;;;;;;;19.70;18.70;;;;;;;17.24;100.00;102324.25;4988171;28;20497;-38
2023/09/25 08:22:01;;;;;;;19.47;18.57;;;;;;;17.33;100.00;102317.66;4988270;28;20454;-41
2023/09/25 08:24:29;;;;;;;19.13;18.40;;;;;;;17.39;100.00;102315.00;4980030;28;20525;-40
2023/09/25 08:26:57;;;;;;;17.37;16.67;;;;;;;17.68;100.00;102324.66;4992448;28;20462;-41
2023/09/25 08:29:25;;;;;;;16.30;15.60;;;;;;;17.62;100.00;102312.78;4983692;28;20424;-43
2023/09/25 08:31:54;;;;;;;18.00;16.80;;;;;;;17.71;100.00;102310.75;4990445;28;20506;-39
2023/09/25 08:34:22;;;;;;;17.40;16.80;;;;;;;17.73;100.00;102322.16;4986517;28;20426;-42
2023/09/25 08:36:49;;;;;;;17.57;16.87;;;;;;;17.82;100.00;102320.94;4995080;28;20466;-41
2023/09/25 08:39:17;;;;;;;17.10;16.40;;;;;;;17.92;100.00;102315.13;4980602;28;20435;-42
2023/09/25 08:41:46;;;;;;;16.43;15.93;;;;;;;17.99;100.00;102321.34;4991634;28;20906;-41
2023/09/25 08:44:15;;;;;;;15.57;15.07;;;;;;;17.99;100.00;102316.78;4983827;28;20493;-45
2023/09/25 08:46:44;;;;;;;14.73;14.23;;;;;;;17.97;100.00;102321.56;4990536;28;20517;-46
2023/09/25 08:49:13;;;;;;;15.73;15.03;;;;;;;18.09;100.00;102314.50;4991643;28;20431;-42
2023/09/25 08:51:41;;;;;;;15.50;14.90;;;;;;;18.25;100.00;102310.53;4987813;28;20462;-39
2023/09/25 08:54:09;;;;;;;12.67;12.30;;;;;;;18.32;100.00;102305.97;4981174;28;20443;-47
2023/09/25 08:56:38;;;;;;;12.70;12.17;;;;;;;18.41;100.00;102315.50;4988727;28;20461;-44
2023/09/25 08:59:06;;;;;;;12.37;11.97;;;;;;;18.69;100.00;102307.19;4986953;28;20431;-42
2023/09/25 09:01:35;;;;;;;11.13;10.60;;;;;;;18.80;100.00;102311.91;4968540;28;20478;-39
2023/09/25 09:04:03;;;;;;;10.10;9.70;;;;;;;19.06;100.00;102314.50;4976346;28;20432;-42
2023/09/25 09:06:32;;;;;;;9.70;9.40;;;;;;;19.14;100.00;102314.28;4987700;28;20486;-43
2023/09/25 09:09:00;;;;;;;9.47;8.97;;;;;;;19.12;100.00;102308.25;4998734;28;20439;-40
2023/09/25 09:11:28;;;;;;;9.23;8.83;;;;;;;19.21;100.00;102309.66;4998785;28;20495;-42
2023/09/25 09:13:58;;;;;;;8.77;8.47;;;;;;;19.38;100.00;102307.31;4993956;28;20474;-44
2023/09/25 09:16:26;;;;;;;9.33;8.53;;;;;;;19.37;100.00;102302.94;4986251;28;20454;-40
2023/09/25 09:19:06;;;;;;;8.63;8.23;;;;;;;19.37;100.00;102296.69;4986866;28;20465;-43
2023/09/25 09:21:35;;;;;;;8.10;7.80;;;;;;;19.47;100.00;102297.09;4963496;28;20526;-44
2023/09/25 09:24:04;;;;;;;7.20;7.00;;;;;;;19.57;100.00;102292.00;4971451;28;20454;-42
2023/09/25 09:26:33;;;;;;;8.23;7.93;;;;;;;19.54;100.00;102293.28;4963483;28;20498;-44
2023/09/25 09:29:01;;;;;;;7.30;7.00;;;;;;;19.78;100.00;102289.78;4990590;28;20469;-39
2023/09/25 09:31:31;;;;;;;7.03;6.73;;;;;;;19.88;100.00;102286.59;4981165;28;20977;-39
2023/09/25 09:33:59;;;;;;;7.67;7.37;;;;;;;19.96;100.00;102289.00;4979773;28;20463;-40
2023/09/25 09:36:28;;;;;;;7.43;7.03;;;;;;;20.16;100.00;102292.34;4996463;28;20457;-43
2023/09/25 09:38:58;;;;;;;9.40;7.00;;;;;;;20.22;100.00;102291.47;4989162;28;20495;-45
2023/09/25 09:41:27;;;;;;;6.70;6.30;;;;;;;20.49;100.00;102286.66;4959483;28;20436;-43
2023/09/25 09:43:55;;;;;;;6.47;6.10;;;;;;;20.41;99.04;102281.53;4985587;28;20511;-43
2023/09/25 09:46:26;;;;;;;6.10;5.90;;;;;;;20.58;100.00;102274.47;4989885;28;20458;-43
2023/09/25 09:48:57;;;;;;;6.20;5.90;;;;;;;20.77;100.00;102281.53;4980210;28;20795;-42
2023/09/25 09:51:28;;;;;;;5.50;5.20;;;;;;;20.88;100.00;102271.81;4987234;28;20437;-39
2023/09/25 09:54:01;;;;;;;5.90;5.60;;;;;;;21.12;96.90;102276.31;4990547;28;20504;-39
2023/09/25 09:56:31;;;;;;;5.83;5.53;;;;;;;21.19;94.71;102265.38;4997424;28;20473;-41
2023/09/25 09:59:01;;;;;;;5.80;5.43;;;;;;;21.33;93.54;102266.84;4977542;28;20434;-39
2023/09/25 10:01:30;;;;;;;5.47;5.17;;;;;;;21.45;91.31;102278.56;4978852;28;20559;-47
2023/09/25 10:03:58;;;;;;;5.10;4.70;;;;;;;21.31;89.80;102263.53;4978933;28;20499;-41
2023/09/25 10:06:28;;;;;;;5.50;5.17;;;;;;;21.34;91.17;102266.63;4976903;28;20534;-44
2023/09/25 10:09:01;;;;;;;4.80;4.50;;;;;;;21.57;90.02;102265.84;4958804;29;20523;-40
2023/09/25 10:11:30;;;;;;;4.73;4.53;;;;;;;21.35;87.79;102260.16;4968073;28;20455;-41
2023/09/25 10:14:02;;;;;;;5.37;5.17;;;;;;;21.51;91.61;102264.91;4974229;28;20467;-42
2023/09/25 10:16:30;;;;;;;4.60;4.40;;;;;;;21.58;91.16;102264.81;4984213;28;20906;-42
2023/09/25 10:18:58;;;;;;;5.50;5.00;;;;;;;21.76;86.94;102262.00;4993060;28;20498;-46
2023/09/25 10:21:26;;;;;;;5.30;5.00;;;;;;;21.85;85.72;102271.47;4978550;28;20469;-42
2023/09/25 10:23:57;;;;;;;4.20;4.00;;;;;;;21.92;87.35;102276.84;4982249;28;20865;-44
2023/09/25 10:26:28;;;;;;;4.90;4.67;;;;;;;21.93;88.07;102270.31;4980989;28;20458;-40
2023/09/25 10:29:11;;;;;;;4.93;4.63;;;;;;;21.67;81.13;102265.28;4977743;28;20542;-42
2023/09/25 10:31:38;;;;;;;5.37;5.00;;;;;;;21.69;83.25;102263.16;4980079;28;20490;-40
2023/09/25 10:34:08;;;;;;;5.30;5.00;;;;;;;21.70;84.37;102257.53;4981039;28;20980;-40
2023/09/25 10:36:37;;;;;;;6.70;4.60;;;;;;;21.65;87.41;102251.97;4979396;28;20486;-42
2023/09/25 10:39:07;;;;;;;4.13;3.93;;;;;;;21.60;88.33;102248.28;4983420;28;20425;-44
2023/09/25 10:41:37;;;;;;;4.53;4.33;;;;;;;21.60;88.04;102261.84;4989610;28;20434;-40
2023/09/25 10:44:05;;;;;;;6.30;4.33;;;;;;;21.62;88.40;102252.44;4971600;28;20427;-41
2023/09/25 10:46:33;;;;;;;4.67;4.37;;;;;;;21.58;84.31;102251.25;4975471;28;20466;-40
2023/09/25 10:49:01;;;;;;;4.00;3.80;;;;;;;21.63;86.89;102251.34;4978596;28;20561;-45
2023/09/25 10:51:29;;;;;;;3.93;3.70;;;;;;;21.64;88.86;102250.31;4978476;28;20546;-44
2023/09/25 10:53:57;;;;;;;3.80;3.70;;;;;;;21.63;87.19;102251.34;4983029;28;20815;-45
2023/09/25 10:56:25;;;;;;;3.83;3.63;;;;;;;21.74;89.68;102249.75;4989080;28;20516;-42
2023/09/25 10:58:56;;;;;;;4.47;4.10;;;;;;;21.81;87.44;102245.00;4985895;28;20529;-39
2023/09/25 11:01:24;;;;;;;3.97;3.80;;;;;;;21.78;84.78;102251.72;4993405;28;20948;-42
2023/09/25 11:03:53;;;;;;;4.10;3.90;;;;;;;21.89;84.63;102245.50;4974612;28;20455;-46
2023/09/25 11:06:22;;;;;;;3.97;3.77;;;;;;;22.12;87.86;102252.03;4973136;28;21108;-39
2023/09/25 11:08:57;;;;;;;4.87;4.00;;;;;;;22.04;83.03;102245.06;4972378;28;20426;-41
2023/09/25 11:11:25;;;;;;;4.27;4.10;;;;;;;22.07;84.49;102241.06;5000882;28;20532;-45